Bee Ridge, Indiana
Current Conditions -  °F | °C
As of 9:53 PM on Friday 19 Dec 2014 (Local Time) from KHUF Reporting Station
Overcast Overcast  
Wind Chill: 26°   Ceiling: 2700
Heat Index: 31°   Visibility: 10mi
Dew Point: 24°   Wind: 5mph
Humidity: 76%   Direction: 70°ENE
Pressure: 30.28"   Gusts: NA
Location:  39.5158°N, 87.1262°W
Report Text: KHUF 200253Z 07004KT 10SM OVC027 M01/M04 A3028 RMK AO2 SLP259 T10061044 56009
Loading
Personal Weather Stations






























Interactive Weather Map New forecast layout! Learn more

10-Day Weather Forecast

Advertisements
Track Severe Weather on mobile